createdAt,value
2018-11-13T00:01:41.445Z,27.40
2018-11-13T00:04:12.892Z,27.40
2018-11-13T00:06:44.312Z,27.50
2018-11-13T00:09:16.011Z,27.50
2018-11-13T00:11:47.292Z,27.50
2018-11-13T00:14:18.957Z,27.50
2018-11-13T00:16:50.596Z,27.50
2018-11-13T00:19:21.966Z,27.50
2018-11-13T00:21:53.473Z,27.50
2018-11-13T00:24:24.967Z,27.40
2018-11-13T00:26:56.328Z,27.40
2018-11-13T00:29:29.551Z,27.50
2018-11-13T00:32:00.896Z,27.40
2018-11-13T00:34:33.051Z,27.40
2018-11-13T00:37:04.596Z,27.40
2018-11-13T00:39:36.264Z,27.40
2018-11-13T00:42:07.556Z,27.40
2018-11-13T00:44:39.260Z,27.40
2018-11-13T00:47:10.979Z,27.40
2018-11-13T00:49:42.588Z,27.40
2018-11-13T00:52:14.007Z,27.30
2018-11-13T00:54:47.492Z,27.40
2018-11-13T00:57:18.803Z,27.40
2018-11-13T00:59:50.952Z,27.40
2018-11-13T01:02:22.413Z,27.30
2018-11-13T01:04:53.960Z,27.30
2018-11-13T01:07:25.316Z,27.30
2018-11-13T01:09:56.951Z,27.30
2018-11-13T01:12:28.259Z,27.30
2018-11-13T01:15:00.070Z,27.30
2018-11-13T01:17:32.088Z,27.30
2018-11-13T01:20:03.761Z,27.30
2018-11-13T01:22:35.359Z,27.30
2018-11-13T01:25:07.852Z,27.30
2018-11-13T01:27:39.291Z,27.30
2018-11-13T01:30:12.120Z,27.30
2018-11-13T01:32:44.185Z,27.30
2018-11-13T01:35:17.127Z,27.30
2018-11-13T01:37:48.399Z,27.20
2018-11-13T01:40:21.772Z,27.10
2018-11-13T01:42:53.934Z,27.20
2018-11-13T01:45:26.519Z,27.10
2018-11-13T01:47:58.512Z,27.10
2018-11-13T01:50:30.209Z,27.00
2018-11-13T01:53:02.248Z,27.00
2018-11-13T01:55:35.137Z,27.00
2018-11-13T01:58:06.503Z,26.80
2018-11-13T02:00:38.494Z,26.80
2018-11-13T02:03:10.541Z,26.80
2018-11-13T02:05:42.432Z,26.70
2018-11-13T02:08:13.957Z,26.70
2018-11-13T02:10:45.514Z,26.70
2018-11-13T02:13:16.980Z,26.60
2018-11-13T02:15:48.548Z,26.60
2018-11-13T02:18:20.624Z,26.50
2018-11-13T02:20:52.212Z,26.50
2018-11-13T02:23:23.236Z,26.40
2018-11-13T02:25:58.026Z,26.40
2018-11-13T02:28:29.972Z,26.40
2018-11-13T02:31:02.741Z,26.30
2018-11-13T02:33:34.116Z,26.20
2018-11-13T02:36:05.490Z,26.30
2018-11-13T02:38:36.543Z,26.30
2018-11-13T02:41:07.938Z,26.40
2018-11-13T02:43:38.975Z,26.30
2018-11-13T02:46:10.340Z,26.30
2018-11-13T02:48:41.489Z,26.30
2018-11-13T02:51:17.695Z,26.30
2018-11-13T02:53:54.002Z,26.40
2018-11-13T02:56:27.198Z,26.40
2018-11-13T02:58:58.429Z,26.40
2018-11-13T03:01:30.049Z,26.50
2018-11-13T03:04:01.005Z,26.60
2018-11-13T03:06:32.664Z,26.60
2018-11-13T03:09:04.940Z,26.60
2018-11-13T03:11:36.152Z,26.70
2018-11-13T03:14:07.404Z,26.80
2018-11-13T03:16:38.569Z,26.80
2018-11-13T03:19:09.617Z,26.90
2018-11-13T03:21:41.125Z,27.00
2018-11-13T03:24:12.090Z,27.10
2018-11-13T03:26:43.669Z,27.30
2018-11-13T03:29:14.688Z,27.50
2018-11-13T03:31:46.078Z,28.20
2018-11-13T03:34:17.149Z,30.30
2018-11-13T03:36:48.625Z,31.70
2018-11-13T03:39:19.644Z,32.60
2018-11-13T03:41:51.557Z,32.40
2018-11-13T03:44:22.652Z,31.40
2018-11-13T03:46:54.034Z,30.80
2018-11-13T03:49:25.292Z,30.40
2018-11-13T03:51:56.624Z,30.20
2018-11-13T03:54:27.644Z,30.20
2018-11-13T03:56:59.964Z,30.20
2018-11-13T03:59:31.026Z,30.20
2018-11-13T04:02:02.447Z,30.00
2018-11-13T04:04:33.448Z,30.10
2018-11-13T04:07:05.285Z,30.20
2018-11-13T04:09:36.296Z,30.30
2018-11-13T04:12:07.786Z,30.60
2018-11-13T04:14:38.832Z,30.70
2018-11-13T04:17:10.289Z,30.70
2018-11-13T04:19:41.409Z,30.70
2018-11-13T04:22:13.141Z,31.00
2018-11-13T04:24:44.177Z,31.60
2018-11-13T04:27:15.509Z,32.40
2018-11-13T04:29:46.613Z,32.90
2018-11-13T04:32:18.169Z,32.90
2018-11-13T04:34:49.225Z,32.70
2018-11-13T04:37:20.589Z,32.10
2018-11-13T04:39:51.584Z,31.90
2018-11-13T04:42:23.041Z,31.80
2018-11-13T04:44:54.173Z,31.80
2018-11-13T04:47:25.540Z,31.70
2018-11-13T04:49:56.566Z,31.90
2018-11-13T04:52:27.897Z,31.90
2018-11-13T04:54:58.875Z,31.70
2018-11-13T04:57:30.921Z,31.70
2018-11-13T05:00:03.139Z,31.40
2018-11-13T05:02:34.566Z,31.50
2018-11-13T05:05:05.833Z,31.60
2018-11-13T05:07:37.843Z,31.70
2018-11-13T05:10:11.018Z,31.50
2018-11-13T05:12:43.757Z,32.10
2018-11-13T05:15:14.809Z,32.10
2018-11-13T05:17:46.830Z,32.10
2018-11-13T05:20:19.106Z,32.00
2018-11-13T05:22:50.688Z,32.10
2018-11-13T05:25:22.283Z,32.70
2018-11-13T05:27:53.352Z,33.30
2018-11-13T05:30:24.752Z,33.40
2018-11-13T05:32:56.002Z,33.40
2018-11-13T05:35:27.065Z,34.10
2018-11-13T05:37:58.485Z,34.30
2018-11-13T05:40:29.497Z,34.00
2018-11-13T05:43:01.244Z,34.30
2018-11-13T05:45:32.295Z,34.00
2018-11-13T05:48:03.584Z,33.70
2018-11-13T05:50:34.541Z,33.30
2018-11-13T05:53:05.794Z,33.00
2018-11-13T05:55:36.944Z,32.90
2018-11-13T05:58:09.544Z,33.30
2018-11-13T06:00:40.688Z,33.10
2018-11-13T06:03:12.324Z,33.20
2018-11-13T06:05:43.442Z,33.30
2018-11-13T06:08:18.648Z,33.30
2018-11-13T06:10:49.857Z,33.10
2018-11-13T06:13:21.036Z,33.20
2018-11-13T06:15:52.125Z,33.00
2018-11-13T06:18:23.609Z,33.00
2018-11-13T06:20:54.682Z,33.10
2018-11-13T06:23:25.960Z,33.40
2018-11-13T06:25:57.101Z,33.40
2018-11-13T06:28:28.395Z,33.30
2018-11-13T06:30:59.404Z,33.30
2018-11-13T06:33:30.805Z,33.30
2018-11-13T06:36:01.853Z,33.40
2018-11-13T06:38:33.129Z,33.30
2018-11-13T06:41:04.150Z,33.50
2018-11-13T06:43:35.497Z,33.60
2018-11-13T06:46:06.870Z,34.20
2018-11-13T06:48:38.120Z,34.70
2018-11-13T06:51:09.218Z,35.10
2018-11-13T06:53:50.722Z,34.90
2018-11-13T06:56:22.104Z,33.80
2018-11-13T06:58:55.005Z,33.90
2018-11-13T07:01:25.953Z,33.90
2018-11-13T07:03:57.389Z,33.30
2018-11-13T07:06:28.457Z,33.20
2018-11-13T07:09:00.280Z,33.30
2018-11-13T07:11:31.260Z,33.20
2018-11-13T07:14:02.420Z,33.20
2018-11-13T07:16:33.360Z,33.20
2018-11-13T07:19:04.828Z,33.30
2018-11-13T07:21:35.925Z,33.30
2018-11-13T07:24:07.555Z,33.30
2018-11-13T07:26:38.538Z,33.40
2018-11-13T07:29:09.758Z,33.20
2018-11-13T07:31:40.731Z,33.10
2018-11-13T07:34:12.771Z,32.60
2018-11-13T07:36:44.247Z,32.10
2018-11-13T07:39:15.834Z,31.60
2018-11-13T07:41:47.236Z,31.90
2018-11-13T07:44:18.786Z,31.80
2018-11-13T07:46:50.138Z,31.80
2018-11-13T07:49:22.116Z,32.40
2018-11-13T07:51:53.510Z,32.50
2018-11-13T07:54:25.188Z,32.50
2018-11-13T07:56:56.641Z,32.60
2018-11-13T07:59:29.545Z,32.30
2018-11-13T08:02:00.875Z,31.90
2018-11-13T08:04:33.130Z,31.70
2018-11-13T08:07:06.060Z,31.70
2018-11-13T08:09:37.994Z,31.70
2018-11-13T08:12:09.344Z,31.50
2018-11-13T08:14:41.153Z,31.80
2018-11-13T08:17:13.280Z,31.40
2018-11-13T08:19:45.085Z,32.30
2018-11-13T08:22:16.686Z,31.90
2018-11-13T08:24:49.217Z,31.50
2018-11-13T08:27:20.829Z,31.60
2018-11-13T08:29:52.860Z,31.90
2018-11-13T08:32:24.225Z,32.30
2018-11-13T08:34:55.898Z,32.50
2018-11-13T08:37:27.570Z,32.50
2018-11-13T08:39:59.369Z,32.70
2018-11-13T08:42:30.293Z,32.70
2018-11-13T08:45:02.472Z,32.90
2018-11-13T08:47:33.554Z,33.10
2018-11-13T08:50:05.358Z,33.10
2018-11-13T08:52:36.345Z,32.90
2018-11-13T08:55:07.957Z,32.80
2018-11-13T08:57:38.947Z,32.80
2018-11-13T09:00:13.154Z,32.60
2018-11-13T09:02:44.573Z,32.80
2018-11-13T09:05:16.225Z,32.90
2018-11-13T09:07:47.416Z,32.90
2018-11-13T09:10:19.670Z,32.80
2018-11-13T09:12:50.583Z,32.60
2018-11-13T09:15:22.637Z,32.90
2018-11-13T09:17:53.802Z,32.90
2018-11-13T09:20:25.197Z,33.00
2018-11-13T09:22:56.270Z,33.00
2018-11-13T09:25:27.717Z,32.90
2018-11-13T09:27:58.928Z,32.90
2018-11-13T09:30:30.541Z,32.90
2018-11-13T09:33:02.454Z,32.90
2018-11-13T09:35:33.899Z,32.90
2018-11-13T09:38:04.931Z,33.10
2018-11-13T09:40:36.560Z,32.80
2018-11-13T09:43:07.669Z,32.80
2018-11-13T09:45:39.921Z,32.80
2018-11-13T09:48:10.905Z,32.70
2018-11-13T09:50:42.027Z,32.90
2018-11-13T09:53:13.199Z,32.80
2018-11-13T09:55:44.596Z,32.60
2018-11-13T09:58:15.684Z,32.60
2018-11-13T10:00:48.248Z,32.70
2018-11-13T10:03:19.923Z,32.60
2018-11-13T10:05:50.952Z,32.90
2018-11-13T10:08:22.113Z,32.80
2018-11-13T10:10:53.421Z,32.80
2018-11-13T10:13:24.465Z,32.50
2018-11-13T10:15:55.881Z,32.50
2018-11-13T10:18:26.932Z,32.50
2018-11-13T10:20:58.078Z,32.40
2018-11-13T10:23:29.146Z,32.40
2018-11-13T10:26:00.806Z,32.30
2018-11-13T10:28:31.880Z,32.30
2018-11-13T10:31:03.998Z,32.20
2018-11-13T10:33:34.990Z,32.20
2018-11-13T10:36:06.313Z,32.20
2018-11-13T10:38:37.387Z,32.10
2018-11-13T10:41:09.270Z,32.10
2018-11-13T10:43:40.301Z,32.00
2018-11-13T10:46:11.516Z,32.00
2018-11-13T10:48:42.591Z,32.00
2018-11-13T10:51:13.995Z,32.00
2018-11-13T10:53:45.182Z,32.00
2018-11-13T10:56:16.724Z,32.00
2018-11-13T10:58:47.733Z,32.00
2018-11-13T11:01:25.681Z,32.00
2018-11-13T11:04:01.615Z,32.00
2018-11-13T11:06:35.012Z,31.90
2018-11-13T11:09:08.046Z,31.90
2018-11-13T11:11:40.404Z,31.80
2018-11-13T11:14:12.265Z,31.80
2018-11-13T11:16:43.650Z,31.70
2018-11-13T11:19:14.664Z,31.70
2018-11-13T11:21:46.193Z,31.60
2018-11-13T11:24:17.435Z,31.60
2018-11-13T11:26:48.688Z,31.50
2018-11-13T11:29:19.826Z,31.50
2018-11-13T11:31:51.205Z,31.40
2018-11-13T11:34:22.233Z,31.40
2018-11-13T11:36:53.439Z,31.40
2018-11-13T11:39:24.436Z,31.40
2018-11-13T11:41:56.098Z,31.40
2018-11-13T11:44:27.207Z,31.40
2018-11-13T11:46:58.433Z,31.30
2018-11-13T11:49:30.328Z,31.20
2018-11-13T11:52:02.397Z,31.10
2018-11-13T11:54:34.329Z,31.30
2018-11-13T11:57:08.657Z,31.30
2018-11-13T11:59:39.720Z,31.30
2018-11-13T12:02:13.221Z,31.30
2018-11-13T12:04:44.364Z,31.30
2018-11-13T12:07:17.649Z,31.40
2018-11-13T12:09:48.793Z,31.30
2018-11-13T12:12:20.334Z,31.20
2018-11-13T12:14:51.541Z,31.20
2018-11-13T12:17:23.424Z,31.10
2018-11-13T12:19:54.894Z,31.20
2018-11-13T12:22:26.379Z,31.00
2018-11-13T12:24:57.694Z,31.00
2018-11-13T12:27:29.806Z,31.10
2018-11-13T12:30:01.358Z,31.10
2018-11-13T12:32:33.152Z,30.10
2018-11-13T12:35:05.507Z,29.60
2018-11-13T12:37:37.489Z,29.60
2018-11-13T12:40:10.405Z,29.30
2018-11-13T12:42:42.409Z,29.50
2018-11-13T12:45:13.918Z,29.30
2018-11-13T12:47:46.413Z,29.00
2018-11-13T12:50:19.130Z,28.90
2018-11-13T12:52:51.289Z,28.70
2018-11-13T12:55:23.951Z,28.60
2018-11-13T12:57:58.146Z,28.70
2018-11-13T13:00:28.400Z,28.80
2018-11-13T13:03:05.065Z,29.00
2018-11-13T13:05:36.960Z,29.40
2018-11-13T13:08:08.643Z,29.10
2018-11-13T13:10:39.941Z,29.40
2018-11-13T13:13:11.933Z,29.90
2018-11-13T13:15:47.120Z,30.00
2018-11-13T13:18:18.551Z,30.00
2018-11-13T13:20:49.611Z,30.10
2018-11-13T13:23:21.154Z,30.10
2018-11-13T13:25:52.496Z,30.10
2018-11-13T13:28:23.885Z,30.10
2018-11-13T13:30:55.006Z,30.10
2018-11-13T13:33:27.633Z,30.10
2018-11-13T13:36:01.137Z,30.00
2018-11-13T13:38:34.057Z,30.00
2018-11-13T13:41:07.301Z,30.00
2018-11-13T13:43:38.960Z,30.00
2018-11-13T13:46:10.824Z,29.90
2018-11-13T13:48:42.237Z,29.90
2018-11-13T13:51:13.317Z,29.80
2018-11-13T13:53:44.778Z,29.80
2018-11-13T13:56:16.013Z,29.90
2018-11-13T13:58:47.718Z,29.80
2018-11-13T14:01:18.709Z,29.70
2018-11-13T14:03:52.522Z,29.80
2018-11-13T14:06:23.580Z,29.70
2018-11-13T14:08:55.009Z,29.80
2018-11-13T14:11:26.574Z,29.70
2018-11-13T14:13:57.760Z,29.70
2018-11-13T14:16:29.321Z,29.70
2018-11-13T14:19:03.040Z,29.70
2018-11-13T14:21:34.560Z,29.60
2018-11-13T14:24:06.403Z,29.60
2018-11-13T14:26:37.877Z,29.50
2018-11-13T14:29:09.609Z,29.50
2018-11-13T14:31:41.260Z,29.50
2018-11-13T14:34:13.157Z,29.50
2018-11-13T14:36:44.432Z,29.50
2018-11-13T14:39:16.306Z,29.40
2018-11-13T14:41:47.619Z,29.40
2018-11-13T14:44:19.128Z,29.40
2018-11-13T14:46:50.665Z,29.40
2018-11-13T14:49:22.382Z,29.40
2018-11-13T14:51:53.760Z,29.40
2018-11-13T14:54:25.707Z,29.40
2018-11-13T14:56:57.272Z,29.40
2018-11-13T14:59:28.893Z,29.40
2018-11-13T15:02:00.400Z,29.40
2018-11-13T15:04:33.246Z,29.40
2018-11-13T15:07:05.264Z,29.40
2018-11-13T15:09:37.037Z,29.40
2018-11-13T15:12:08.592Z,29.30
2018-11-13T15:14:40.184Z,29.30
2018-11-13T15:17:11.648Z,29.30
2018-11-13T15:19:43.304Z,29.30
2018-11-13T15:22:14.590Z,29.30
2018-11-13T15:24:46.424Z,29.30
2018-11-13T15:27:17.929Z,29.30
2018-11-13T15:29:49.549Z,29.20
2018-11-13T15:32:21.073Z,29.10
2018-11-13T15:34:53.038Z,29.10
2018-11-13T15:37:24.309Z,29.10
2018-11-13T15:39:55.928Z,29.10
2018-11-13T15:42:27.553Z,29.10
2018-11-13T15:44:59.109Z,29.10
2018-11-13T15:47:30.586Z,29.00
2018-11-13T15:50:02.267Z,29.00
2018-11-13T15:52:33.543Z,29.00
2018-11-13T15:55:05.954Z,29.00
2018-11-13T15:57:38.156Z,29.00
2018-11-13T16:00:17.081Z,29.00
2018-11-13T16:02:48.420Z,29.00
2018-11-13T16:05:29.010Z,29.00
2018-11-13T16:08:01.648Z,29.00
2018-11-13T16:10:34.528Z,29.00
2018-11-13T16:13:06.855Z,29.00
2018-11-13T16:15:38.589Z,28.90
2018-11-13T16:18:12.515Z,28.90
2018-11-13T16:20:44.281Z,28.90
2018-11-13T16:23:15.830Z,28.90
2018-11-13T16:25:48.109Z,28.80
2018-11-13T16:28:19.733Z,28.80
2018-11-13T16:30:51.518Z,28.80
2018-11-13T16:33:22.759Z,28.80
2018-11-13T16:35:54.741Z,28.80
2018-11-13T16:38:26.415Z,28.80
2018-11-13T16:40:57.941Z,28.80
2018-11-13T16:43:29.303Z,28.80
2018-11-13T16:46:00.877Z,28.70
2018-11-13T16:48:32.604Z,28.70
2018-11-13T16:51:04.377Z,28.70
2018-11-13T16:53:40.768Z,28.70
2018-11-13T16:56:12.154Z,28.60
2018-11-13T16:58:44.165Z,28.60
2018-11-13T17:01:16.093Z,28.70
2018-11-13T17:03:47.815Z,28.70
2018-11-13T17:06:21.207Z,28.70
2018-11-13T17:08:52.725Z,28.70
2018-11-13T17:11:25.026Z,28.70
2018-11-13T17:13:56.435Z,28.60
2018-11-13T17:16:28.209Z,28.60
2018-11-13T17:18:59.645Z,28.50
2018-11-13T17:21:31.565Z,28.50
2018-11-13T17:24:03.098Z,28.50
2018-11-13T17:26:35.678Z,28.50
2018-11-13T17:29:07.048Z,28.50
2018-11-13T17:31:38.872Z,28.50
2018-11-13T17:34:10.469Z,28.50
2018-11-13T17:36:42.249Z,28.50
2018-11-13T17:39:14.873Z,28.50
2018-11-13T17:41:46.580Z,28.50
2018-11-13T17:44:18.061Z,28.40
2018-11-13T17:46:49.681Z,28.40
2018-11-13T17:49:21.288Z,28.30
2018-11-13T17:51:53.115Z,28.30
2018-11-13T17:54:24.491Z,28.20
2018-11-13T17:56:56.415Z,28.30
2018-11-13T17:59:27.958Z,28.20
2018-11-13T18:01:59.573Z,28.20
2018-11-13T18:04:31.145Z,28.20
2018-11-13T18:07:03.873Z,28.20
2018-11-13T18:09:35.120Z,28.20
2018-11-13T18:12:06.654Z,28.20
2018-11-13T18:14:38.061Z,28.10
2018-11-13T18:17:09.911Z,28.10
2018-11-13T18:19:41.254Z,28.10
2018-11-13T18:22:12.885Z,28.10
2018-11-13T18:24:44.549Z,28.10
2018-11-13T18:27:16.522Z,28.10
2018-11-13T18:29:47.973Z,28.10
2018-11-13T18:32:19.622Z,28.10
2018-11-13T18:34:50.721Z,28.10
2018-11-13T18:37:22.378Z,28.10
2018-11-13T18:39:53.860Z,28.00
2018-11-13T18:42:26.385Z,28.10
2018-11-13T18:44:57.787Z,28.00
2018-11-13T18:47:29.552Z,28.10
2018-11-13T18:50:01.108Z,28.00
2018-11-13T18:52:32.580Z,28.00
2018-11-13T18:55:04.977Z,28.00
2018-11-13T18:57:36.736Z,28.00
2018-11-13T19:00:10.913Z,27.90
2018-11-13T19:02:42.789Z,28.00
2018-11-13T19:05:14.810Z,28.00
2018-11-13T19:07:47.905Z,28.00
2018-11-13T19:10:27.761Z,28.00
2018-11-13T19:13:00.628Z,28.00
2018-11-13T19:15:33.122Z,27.90
2018-11-13T19:18:05.373Z,28.00
2018-11-13T19:20:36.880Z,27.90
2018-11-13T19:23:08.777Z,28.00
2018-11-13T19:25:40.529Z,28.00
2018-11-13T19:28:12.249Z,27.80
2018-11-13T19:30:43.783Z,27.70
2018-11-13T19:33:15.175Z,27.70
2018-11-13T19:35:46.823Z,27.70
2018-11-13T19:38:19.337Z,27.60
2018-11-13T19:40:50.741Z,27.60
2018-11-13T19:43:22.269Z,27.70
2018-11-13T19:45:53.797Z,27.70
2018-11-13T19:48:25.326Z,27.70
2018-11-13T19:50:56.648Z,27.70
2018-11-13T19:53:28.903Z,27.60
2018-11-13T19:56:00.448Z,27.60
2018-11-13T19:58:31.968Z,27.50
2018-11-13T20:01:04.392Z,27.50
2018-11-13T20:03:36.718Z,27.60
2018-11-13T20:06:08.047Z,27.70
2018-11-13T20:08:40.257Z,27.70
2018-11-13T20:11:11.654Z,27.80
2018-11-13T20:13:43.004Z,27.80
2018-11-13T20:16:14.353Z,27.80
2018-11-13T20:18:45.897Z,27.90
2018-11-13T20:21:17.170Z,27.80
2018-11-13T20:23:49.052Z,27.80
2018-11-13T20:26:20.418Z,27.80
2018-11-13T20:28:52.113Z,27.80
2018-11-13T20:31:23.651Z,27.90
2018-11-13T20:33:55.184Z,27.90
2018-11-13T20:36:26.464Z,27.80
2018-11-13T20:38:58.045Z,27.90
2018-11-13T20:41:29.476Z,27.90
2018-11-13T20:44:02.426Z,27.90
2018-11-13T20:46:33.848Z,27.90
2018-11-13T20:49:05.796Z,27.90
2018-11-13T20:51:37.514Z,27.90
2018-11-13T20:54:09.245Z,27.90
2018-11-13T20:56:40.469Z,28.00
2018-11-13T20:59:12.200Z,28.00
2018-11-13T21:01:43.585Z,28.00
2018-11-13T21:04:15.269Z,28.00
2018-11-13T21:06:46.713Z,28.00
2018-11-13T21:09:19.682Z,28.00
2018-11-13T21:11:50.966Z,28.00
2018-11-13T21:14:22.481Z,28.00
2018-11-13T21:16:54.085Z,28.00
2018-11-13T21:19:25.675Z,28.00
2018-11-13T21:21:57.282Z,28.00
2018-11-13T21:24:28.968Z,28.00
2018-11-13T21:27:00.423Z,28.00
2018-11-13T21:29:32.538Z,28.00
2018-11-13T21:32:03.789Z,28.00
2018-11-13T21:34:35.601Z,28.00
2018-11-13T21:37:08.758Z,28.00
2018-11-13T21:39:40.472Z,28.00
2018-11-13T21:42:11.938Z,28.00
2018-11-13T21:44:43.796Z,28.00
2018-11-13T21:47:15.283Z,28.00
2018-11-13T21:49:47.050Z,28.00
2018-11-13T21:52:19.500Z,27.90
2018-11-13T21:54:51.005Z,28.00
2018-11-13T21:57:22.320Z,27.90
2018-11-13T21:59:53.833Z,27.80
2018-11-13T22:02:25.925Z,27.70
2018-11-13T22:04:58.298Z,27.60
2018-11-13T22:07:29.547Z,27.70
2018-11-13T22:10:02.217Z,27.50
2018-11-13T22:12:33.645Z,27.30
2018-11-13T22:15:07.938Z,27.20
2018-11-13T22:17:39.357Z,27.10
2018-11-13T22:20:13.037Z,27.00
2018-11-13T22:22:44.554Z,27.00
2018-11-13T22:25:19.026Z,27.00
2018-11-13T22:27:51.604Z,26.90
2018-11-13T22:30:27.549Z,26.90
2018-11-13T22:32:59.183Z,26.90
2018-11-13T22:35:31.708Z,26.80
2018-11-13T22:38:03.813Z,26.80
2018-11-13T22:40:35.587Z,26.70
2018-11-13T22:43:06.905Z,26.70
2018-11-13T22:45:38.604Z,26.70
2018-11-13T22:48:10.290Z,26.70
2018-11-13T22:50:41.886Z,26.60
2018-11-13T22:53:13.240Z,26.60
2018-11-13T22:55:45.077Z,26.60
2018-11-13T22:58:16.188Z,26.50
2018-11-13T23:00:48.725Z,26.50
2018-11-13T23:03:20.728Z,26.50
2018-11-13T23:05:52.424Z,26.50
2018-11-13T23:08:23.955Z,26.40
2018-11-13T23:10:57.804Z,26.40
2018-11-13T23:13:29.474Z,26.40
2018-11-13T23:16:01.284Z,26.30
2018-11-13T23:18:32.680Z,26.30
2018-11-13T23:21:04.753Z,26.20
2018-11-13T23:23:36.108Z,26.20
2018-11-13T23:26:07.500Z,26.10
2018-11-13T23:28:39.112Z,26.10
2018-11-13T23:31:10.649Z,26.10
2018-11-13T23:33:42.105Z,26.10
2018-11-13T23:36:13.741Z,26.10
2018-11-13T23:38:45.138Z,26.10
2018-11-13T23:41:16.973Z,26.00
2018-11-13T23:43:48.322Z,26.00
2018-11-13T23:46:19.844Z,26.00
2018-11-13T23:48:51.336Z,26.00
2018-11-13T23:51:22.982Z,26.00
2018-11-13T23:53:54.623Z,25.90
2018-11-13T23:56:26.781Z,25.90
2018-11-13T23:58:58.268Z,25.90
